createdAt,value
2019-03-26T00:00:08.291Z,5.60
2019-03-26T00:02:39.194Z,6.43
2019-03-26T00:05:08.466Z,6.80
2019-03-26T00:07:37.758Z,6.73
2019-03-26T00:10:07.096Z,5.50
2019-03-26T00:12:36.382Z,7.27
2019-03-26T00:15:06.380Z,6.07
2019-03-26T00:17:35.765Z,7.87
2019-03-26T00:20:06.372Z,7.27
2019-03-26T00:22:35.662Z,6.63
2019-03-26T00:25:06.890Z,7.50
2019-03-26T00:27:36.162Z,8.67
2019-03-26T00:30:05.985Z,5.87
2019-03-26T00:32:35.257Z,9.63
2019-03-26T00:35:04.782Z,6.83
2019-03-26T00:37:34.138Z,6.30
2019-03-26T00:40:04.106Z,7.67
2019-03-26T00:42:33.377Z,6.87
2019-03-26T00:45:02.746Z,7.90
2019-03-26T00:47:32.013Z,7.70
2019-03-26T00:50:01.356Z,7.77
2019-03-26T00:52:30.757Z,6.80
2019-03-26T00:55:00.054Z,6.77
2019-03-26T00:57:29.398Z,7.27
2019-03-26T00:59:58.706Z,6.27
2019-03-26T01:02:27.986Z,5.87
2019-03-26T01:04:57.385Z,4.90
2019-03-26T01:07:26.645Z,5.63
2019-03-26T01:09:55.918Z,6.00
2019-03-26T01:12:25.279Z,4.73
2019-03-26T01:14:54.555Z,6.93
2019-03-26T01:17:23.850Z,5.20
2019-03-26T01:19:53.126Z,9.07
2019-03-26T01:22:22.421Z,8.73
2019-03-26T01:24:51.694Z,6.50
2019-03-26T01:27:21.954Z,7.10
2019-03-26T01:29:51.230Z,6.47
2019-03-26T01:32:20.529Z,5.80
2019-03-26T01:34:49.806Z,9.73
2019-03-26T01:37:19.093Z,6.40
2019-03-26T01:39:48.379Z,10.27
2019-03-26T01:42:17.666Z,5.80
2019-03-26T01:44:46.943Z,7.80
2019-03-26T01:47:16.230Z,8.37
2019-03-26T01:49:45.506Z,7.57
2019-03-26T01:52:14.807Z,9.93
2019-03-26T01:54:44.087Z,10.70
2019-03-26T01:57:14.350Z,6.53
2019-03-26T01:59:43.690Z,4.63
2019-03-26T02:02:12.980Z,8.57
2019-03-26T02:04:42.287Z,9.93
2019-03-26T02:07:11.626Z,5.83
2019-03-26T02:09:40.898Z,8.30
2019-03-26T02:12:10.175Z,11.83
2019-03-26T02:14:39.554Z,9.93
2019-03-26T02:17:08.815Z,5.50
2019-03-26T02:19:38.206Z,9.30
2019-03-26T02:22:07.534Z,9.13
2019-03-26T02:24:36.823Z,7.67
2019-03-26T02:27:06.105Z,8.33
2019-03-26T02:29:35.400Z,8.13
2019-03-26T02:32:04.740Z,8.63
2019-03-26T02:34:34.298Z,6.13
2019-03-26T02:37:03.583Z,10.13
2019-03-26T02:39:32.874Z,9.20
2019-03-26T02:42:02.151Z,7.53
2019-03-26T02:44:31.435Z,7.70
2019-03-26T02:47:00.717Z,8.93
2019-03-26T02:49:30.015Z,9.53
2019-03-26T02:52:08.892Z,7.67
2019-03-26T02:54:38.192Z,8.33
2019-03-26T02:57:07.559Z,5.93
2019-03-26T02:59:36.826Z,10.10
2019-03-26T03:02:06.127Z,9.27
2019-03-26T03:04:35.405Z,11.13
2019-03-26T03:07:04.704Z,8.50
2019-03-26T03:09:33.979Z,9.70
2019-03-26T03:12:03.275Z,8.73
2019-03-26T03:14:32.554Z,7.07
2019-03-26T03:17:01.847Z,8.10
2019-03-26T03:19:31.116Z,6.63
2019-03-26T03:24:35.586Z,10.37
2019-03-26T03:27:04.869Z,9.83
2019-03-26T03:29:34.159Z,9.87
2019-03-26T03:32:03.442Z,12.33
2019-03-26T03:34:32.816Z,7.90
2019-03-26T03:37:02.088Z,9.23
2019-03-26T03:39:31.395Z,9.97
2019-03-26T03:42:00.835Z,10.77
2019-03-26T03:44:31.107Z,9.43
2019-03-26T03:47:01.728Z,8.17
2019-03-26T03:49:31.193Z,9.63
2019-03-26T03:52:03.279Z,8.00
2019-03-26T03:54:34.078Z,10.93
2019-03-26T03:59:40.891Z,9.63
2019-03-26T04:02:10.192Z,11.30
2019-03-26T04:04:39.463Z,9.83
2019-03-26T04:07:08.758Z,7.43
2019-03-26T04:09:38.035Z,10.83
2019-03-26T04:12:07.322Z,8.57
2019-03-26T04:14:36.609Z,7.87
2019-03-26T04:17:05.897Z,11.33
2019-03-26T04:19:35.172Z,10.60
2019-03-26T04:22:04.467Z,9.53
2019-03-26T04:24:33.741Z,11.03
2019-03-26T04:27:04.111Z,11.47
2019-03-26T04:29:33.512Z,8.03
2019-03-26T04:32:02.850Z,11.57
2019-03-26T04:34:32.106Z,11.67
2019-03-26T04:37:01.435Z,8.33
2019-03-26T04:39:30.779Z,11.93
2019-03-26T04:42:00.141Z,8.03
2019-03-26T04:44:29.407Z,11.37
2019-03-26T04:46:58.755Z,11.70
2019-03-26T04:49:28.068Z,8.33
2019-03-26T04:51:57.461Z,9.37
2019-03-26T04:54:26.735Z,8.80
2019-03-26T04:56:56.057Z,10.27
2019-03-26T04:59:25.374Z,11.00
2019-03-26T05:01:54.691Z,7.63
2019-03-26T05:04:23.964Z,7.23
2019-03-26T05:06:53.295Z,8.47
2019-03-26T05:09:22.579Z,10.37
2019-03-26T05:11:51.882Z,7.53
2019-03-26T05:14:21.164Z,8.47
2019-03-26T05:16:50.503Z,8.33
2019-03-26T05:19:19.765Z,9.93
2019-03-26T05:21:49.116Z,10.83
2019-03-26T05:24:18.399Z,10.37
2019-03-26T05:26:47.689Z,9.53
2019-03-26T05:29:16.971Z,13.37
2019-03-26T05:31:46.272Z,9.23
2019-03-26T05:34:16.511Z,12.43
2019-03-26T05:36:51.217Z,12.37
2019-03-26T05:39:17.014Z,9.97
2019-03-26T05:41:46.323Z,10.17
2019-03-26T05:44:15.593Z,9.93
2019-03-26T05:46:44.887Z,12.23
2019-03-26T05:49:14.166Z,15.63
2019-03-26T05:51:43.468Z,12.93
2019-03-26T05:54:12.749Z,15.03
2019-03-26T05:56:42.045Z,16.43
2019-03-26T05:59:11.311Z,17.53
2019-03-26T06:01:40.608Z,19.83
2019-03-26T06:04:09.904Z,13.63
2019-03-26T06:06:39.193Z,15.13
2019-03-26T06:09:08.464Z,14.50
2019-03-26T06:11:37.763Z,13.37
2019-03-26T06:14:07.045Z,15.77
2019-03-26T06:16:38.599Z,13.13
2019-03-26T06:19:07.322Z,13.07
2019-03-26T06:21:36.634Z,12.70
2019-03-26T06:24:05.922Z,11.03
2019-03-26T06:26:35.222Z,11.73
2019-03-26T06:29:04.502Z,10.67
2019-03-26T06:31:33.808Z,11.57
2019-03-26T06:34:03.087Z,12.50
2019-03-26T06:36:32.381Z,10.70
2019-03-26T06:39:02.642Z,9.13
2019-03-26T06:41:31.939Z,8.70
2019-03-26T06:44:01.222Z,10.80
2019-03-26T06:46:30.523Z,8.80
2019-03-26T06:48:59.813Z,8.13
2019-03-26T06:51:29.113Z,7.83
2019-03-26T06:53:58.386Z,11.63
2019-03-26T06:56:27.694Z,8.67
2019-03-26T06:58:56.975Z,9.40
2019-03-26T07:01:26.274Z,10.17
2019-03-26T07:03:55.900Z,12.73
2019-03-26T07:06:25.210Z,11.17
2019-03-26T07:08:54.490Z,10.47
2019-03-26T07:11:23.791Z,10.50
2019-03-26T07:13:53.070Z,10.07
2019-03-26T07:16:22.375Z,8.87
2019-03-26T07:18:51.646Z,11.93
2019-03-26T07:21:21.824Z,9.53
2019-03-26T07:23:51.163Z,9.20
2019-03-26T07:26:20.511Z,10.33
2019-03-26T07:28:49.778Z,10.07
2019-03-26T07:31:19.087Z,11.10
2019-03-26T07:33:48.373Z,8.67
2019-03-26T07:36:17.675Z,10.90
2019-03-26T07:38:46.954Z,9.43
2019-03-26T07:41:16.310Z,11.90
2019-03-26T07:43:45.612Z,8.40
2019-03-26T07:46:14.921Z,10.47
2019-03-26T07:48:44.194Z,8.30
2019-03-26T07:51:13.506Z,10.10
2019-03-26T07:53:42.786Z,7.93
2019-03-26T07:56:12.090Z,13.57
2019-03-26T07:58:41.371Z,7.90
2019-03-26T08:01:10.710Z,11.97
2019-03-26T08:03:39.995Z,5.73
2019-03-26T08:06:10.266Z,7.07
2019-03-26T08:08:40.814Z,8.70
2019-03-26T08:11:10.214Z,9.57
2019-03-26T08:13:41.023Z,6.83
2019-03-26T08:16:10.516Z,9.10
2019-03-26T08:18:39.798Z,10.13
2019-03-26T08:21:09.102Z,6.67
2019-03-26T08:23:38.624Z,11.27
2019-03-26T08:26:08.030Z,8.63
2019-03-26T08:28:37.321Z,10.30
2019-03-26T08:31:06.615Z,6.80
2019-03-26T08:33:35.890Z,7.77
2019-03-26T08:36:05.186Z,6.80
2019-03-26T08:38:34.463Z,8.37
2019-03-26T08:41:04.726Z,7.40
2019-03-26T08:43:34.017Z,11.63
2019-03-26T08:46:03.383Z,10.47
2019-03-26T08:48:32.663Z,9.30
2019-03-26T08:51:01.970Z,10.40
2019-03-26T08:53:31.249Z,9.17
2019-03-26T08:56:00.549Z,8.80
2019-03-26T08:58:29.826Z,10.93
2019-03-26T09:00:59.307Z,11.27
2019-03-26T09:03:28.583Z,12.17
2019-03-26T09:05:57.891Z,14.70
2019-03-26T09:08:27.183Z,10.13
2019-03-26T09:10:56.474Z,9.27
2019-03-26T09:13:25.828Z,10.67
2019-03-26T09:15:56.093Z,10.70
2019-03-26T09:18:25.374Z,11.53
2019-03-26T09:20:54.681Z,11.73
2019-03-26T09:23:23.958Z,7.23
2019-03-26T09:25:53.285Z,9.40
2019-03-26T09:28:22.526Z,9.20
2019-03-26T09:30:51.819Z,7.33
2019-03-26T09:33:21.092Z,10.33
2019-03-26T09:35:50.393Z,7.20
2019-03-26T09:38:19.658Z,7.43
2019-03-26T09:40:48.954Z,7.57
2019-03-26T09:43:18.224Z,8.30
2019-03-26T09:45:47.599Z,9.97
2019-03-26T09:48:16.879Z,9.77
2019-03-26T09:50:46.176Z,9.13
2019-03-26T09:53:15.454Z,11.30
2019-03-26T09:55:44.851Z,10.90
2019-03-26T09:58:15.103Z,9.23
2019-03-26T10:00:44.479Z,10.43
2019-03-26T10:03:13.855Z,10.93
2019-03-26T10:05:43.206Z,15.67
2019-03-26T10:08:12.579Z,11.87
2019-03-26T10:10:41.854Z,8.33
2019-03-26T10:13:11.223Z,11.23
2019-03-26T10:15:40.501Z,12.13
2019-03-26T10:18:09.793Z,11.90
2019-03-26T10:20:39.070Z,14.43
2019-03-26T10:23:08.443Z,17.80
2019-03-26T10:25:37.722Z,15.13
2019-03-26T10:28:07.028Z,17.47
2019-03-26T10:30:38.710Z,18.37
2019-03-26T10:33:08.758Z,14.20
2019-03-26T10:35:38.040Z,13.43
2019-03-26T10:38:07.474Z,14.47
2019-03-26T10:40:38.516Z,18.27
2019-03-26T10:43:08.036Z,20.83
2019-03-26T10:45:37.337Z,16.10
2019-03-26T10:48:06.742Z,21.50
2019-03-26T10:50:36.077Z,18.70
2019-03-26T10:53:05.358Z,17.47
2019-03-26T10:55:34.630Z,18.27
2019-03-26T10:58:04.006Z,16.00
2019-03-26T11:00:33.314Z,16.80
2019-03-26T11:03:02.603Z,17.67
2019-03-26T11:05:31.917Z,19.57
2019-03-26T11:08:01.226Z,20.63
2019-03-26T11:10:31.476Z,18.77
2019-03-26T11:13:01.003Z,15.40
2019-03-26T11:15:30.289Z,18.37
2019-03-26T11:17:59.661Z,16.77
2019-03-26T11:20:28.956Z,18.27
2019-03-26T11:22:58.263Z,19.57
2019-03-26T11:25:27.542Z,19.63
2019-03-26T11:27:56.850Z,15.87
2019-03-26T11:30:26.173Z,18.17
2019-03-26T11:32:55.498Z,23.90
2019-03-26T11:35:24.782Z,16.60
2019-03-26T11:37:54.087Z,17.70
2019-03-26T11:40:23.370Z,18.60
2019-03-26T11:42:52.675Z,21.57
2019-03-26T11:45:22.035Z,18.90
2019-03-26T11:47:51.343Z,18.60
2019-03-26T11:50:20.691Z,18.90
2019-03-26T11:52:50.004Z,15.33
2019-03-26T11:55:21.713Z,19.57
2019-03-26T11:57:50.322Z,14.47
2019-03-26T12:00:21.897Z,16.60
2019-03-26T12:02:51.198Z,13.37
2019-03-26T12:05:20.495Z,16.37
2019-03-26T12:07:49.798Z,17.07
2019-03-26T12:10:19.082Z,15.67
2019-03-26T12:12:48.392Z,17.20
2019-03-26T12:15:17.880Z,14.63
2019-03-26T12:17:47.167Z,14.57
2019-03-26T12:20:16.540Z,17.93
2019-03-26T12:22:45.823Z,16.70
2019-03-26T12:25:15.274Z,17.37
2019-03-26T12:27:44.558Z,16.67
2019-03-26T12:30:15.770Z,15.47
2019-03-26T12:32:45.150Z,15.47
2019-03-26T12:35:19.942Z,13.97
2019-03-26T12:37:49.251Z,16.53
2019-03-26T12:40:18.535Z,16.93
2019-03-26T12:42:47.875Z,15.40
2019-03-26T12:45:17.163Z,15.13
2019-03-26T12:47:46.445Z,18.30
2019-03-26T12:50:15.893Z,16.77
2019-03-26T12:52:45.183Z,16.23
2019-03-26T12:55:14.484Z,13.90
2019-03-26T12:57:43.895Z,17.27
2019-03-26T13:00:13.419Z,14.90
2019-03-26T13:02:42.719Z,14.97
2019-03-26T13:05:12.103Z,14.43
2019-03-26T13:07:41.393Z,13.90
2019-03-26T13:10:14.154Z,12.37
2019-03-26T13:12:42.006Z,18.47
2019-03-26T13:15:11.315Z,16.37
2019-03-26T13:17:40.602Z,15.90
2019-03-26T13:20:10.446Z,14.67
2019-03-26T13:22:39.732Z,18.77
2019-03-26T13:25:09.282Z,18.27
2019-03-26T13:27:38.562Z,15.40
2019-03-26T13:30:08.315Z,14.07
2019-03-26T13:32:37.623Z,14.27
2019-03-26T13:35:07.253Z,16.03
2019-03-26T13:37:36.899Z,15.97
2019-03-26T13:40:06.531Z,15.93
2019-03-26T13:42:35.814Z,13.83
2019-03-26T13:45:08.470Z,12.07
2019-03-26T13:47:37.990Z,14.70
2019-03-26T13:50:07.806Z,14.07
2019-03-26T13:52:37.093Z,14.47
2019-03-26T13:55:08.028Z,12.40
2019-03-26T13:57:37.339Z,11.90
2019-03-26T14:00:10.338Z,14.83
2019-03-26T14:02:47.448Z,16.53
2019-03-26T14:05:26.663Z,15.10
2019-03-26T14:07:56.014Z,11.63
2019-03-26T14:10:39.828Z,11.83
2019-03-26T14:12:57.309Z,10.70
2019-03-26T14:15:26.610Z,11.97
2019-03-26T14:17:55.895Z,12.83
2019-03-26T14:20:25.262Z,12.10
2019-03-26T14:22:54.543Z,17.20
2019-03-26T14:25:23.854Z,16.13
2019-03-26T14:27:53.210Z,14.80
2019-03-26T14:30:31.324Z,13.33
2019-03-26T14:33:00.598Z,11.60
2019-03-26T14:35:29.976Z,9.70
2019-03-26T14:37:59.246Z,6.83
2019-03-26T14:40:28.552Z,9.47
2019-03-26T14:42:57.831Z,10.30
2019-03-26T14:45:27.136Z,10.07
2019-03-26T14:47:56.406Z,9.30
2019-03-26T14:50:25.719Z,10.23
2019-03-26T14:52:54.995Z,8.97
2019-03-26T14:55:24.303Z,10.90
2019-03-26T14:57:53.654Z,9.70
2019-03-26T15:00:22.947Z,9.33
2019-03-26T15:02:52.295Z,6.17
2019-03-26T15:05:21.596Z,9.73
2019-03-26T15:07:50.875Z,8.57
2019-03-26T15:10:23.297Z,6.30
2019-03-26T15:12:51.218Z,6.57
2019-03-26T15:15:20.531Z,11.43
2019-03-26T15:17:49.807Z,10.57
2019-03-26T15:20:19.174Z,8.63
2019-03-26T15:22:48.463Z,11.90
2019-03-26T15:25:17.767Z,6.43
2019-03-26T15:27:47.120Z,13.93
2019-03-26T15:30:16.868Z,9.57
2019-03-26T15:32:46.150Z,6.80
2019-03-26T15:35:15.478Z,5.53
2019-03-26T15:37:44.758Z,8.43
2019-03-26T15:40:14.714Z,6.93
2019-03-26T15:42:44.015Z,8.17
2019-03-26T15:45:13.660Z,8.70
2019-03-26T15:47:42.975Z,8.37
2019-03-26T15:50:14.251Z,9.73
2019-03-26T15:52:43.558Z,7.77
2019-03-26T15:55:12.926Z,9.27
2019-03-26T15:57:42.216Z,8.07
2019-03-26T16:00:11.587Z,9.80
2019-03-26T16:02:40.911Z,8.53
2019-03-26T16:05:10.432Z,8.50
2019-03-26T16:07:39.715Z,10.77
2019-03-26T16:10:09.249Z,8.87
2019-03-26T16:12:41.239Z,6.57
2019-03-26T16:15:09.603Z,9.10
2019-03-26T16:17:38.883Z,8.03
2019-03-26T16:20:08.423Z,5.17
2019-03-26T16:22:37.836Z,8.37
2019-03-26T16:25:07.576Z,6.90
2019-03-26T16:27:36.874Z,6.80
2019-03-26T16:30:07.638Z,9.13
2019-03-26T16:32:37.039Z,7.53
2019-03-26T16:35:12.166Z,5.80
2019-03-26T16:37:41.444Z,5.70
2019-03-26T16:40:11.854Z,11.77
2019-03-26T16:42:41.147Z,10.00
2019-03-26T16:45:10.589Z,11.57
2019-03-26T16:47:39.862Z,7.17
2019-03-26T16:50:12.055Z,10.63
2019-03-26T16:52:41.678Z,7.60
2019-03-26T16:55:15.380Z,6.63
2019-03-26T16:57:44.670Z,6.03
2019-03-26T17:00:14.582Z,16.67
2019-03-26T17:02:43.859Z,8.07
2019-03-26T17:05:16.242Z,9.13
2019-03-26T17:07:45.561Z,7.57
2019-03-26T17:10:15.833Z,9.80
2019-03-26T17:12:45.231Z,10.43
2019-03-26T17:15:14.683Z,9.00
2019-03-26T17:17:43.962Z,8.60
2019-03-26T17:20:13.412Z,9.90
2019-03-26T17:22:42.682Z,10.40
2019-03-26T17:25:12.264Z,8.97
2019-03-26T17:27:41.710Z,10.93
2019-03-26T17:30:11.330Z,15.30
2019-03-26T17:32:40.724Z,13.57
2019-03-26T17:35:10.263Z,10.97
2019-03-26T17:37:39.533Z,9.47
2019-03-26T17:40:08.966Z,11.50
2019-03-26T17:42:38.283Z,9.90
2019-03-26T17:45:08.840Z,9.57
2019-03-26T17:47:38.110Z,9.50
2019-03-26T17:50:08.051Z,6.60
2019-03-26T17:52:37.402Z,10.50
2019-03-26T17:55:07.635Z,8.10
2019-03-26T17:57:36.974Z,7.00
2019-03-26T18:00:09.337Z,9.33
2019-03-26T18:02:38.914Z,9.83
2019-03-26T18:05:12.395Z,7.40
2019-03-26T18:07:41.663Z,8.77
2019-03-26T18:10:11.002Z,7.60
2019-03-26T18:12:40.419Z,8.47
2019-03-26T18:15:09.791Z,11.00
2019-03-26T18:17:39.059Z,9.67
2019-03-26T18:20:08.443Z,8.43
2019-03-26T18:22:37.722Z,10.13
2019-03-26T18:25:07.096Z,12.67
2019-03-26T18:27:36.441Z,8.57
2019-03-26T18:30:05.879Z,9.23
2019-03-26T18:32:37.967Z,8.77
2019-03-26T18:35:07.491Z,6.73
2019-03-26T18:37:37.734Z,9.43
2019-03-26T18:40:08.174Z,8.13
2019-03-26T18:42:43.999Z,7.77
2019-03-26T18:45:08.457Z,10.13
2019-03-26T18:47:37.726Z,8.10
2019-03-26T18:50:07.464Z,8.10
2019-03-26T18:52:36.745Z,9.47
2019-03-26T18:55:06.777Z,9.63
2019-03-26T18:57:36.167Z,10.83
2019-03-26T19:00:09.458Z,10.40
2019-03-26T19:02:38.991Z,9.93
2019-03-26T19:05:09.228Z,14.53
2019-03-26T19:07:38.508Z,10.20
2019-03-26T19:10:13.394Z,10.93
2019-03-26T19:12:42.664Z,11.80
2019-03-26T19:15:12.927Z,11.03
2019-03-26T19:17:42.197Z,9.97
2019-03-26T19:20:11.579Z,8.90
2019-03-26T19:22:40.868Z,10.00
2019-03-26T19:25:10.158Z,10.20
2019-03-26T19:27:39.441Z,9.13
2019-03-26T19:30:08.990Z,10.93
2019-03-26T19:32:38.507Z,8.90
2019-03-26T19:35:07.954Z,8.40
2019-03-26T19:37:37.307Z,8.80
2019-03-26T19:40:07.439Z,9.40
2019-03-26T19:42:36.712Z,12.40
2019-03-26T19:47:44.723Z,11.63
2019-03-26T19:50:14.194Z,11.30
2019-03-26T19:52:43.471Z,12.23
2019-03-26T19:55:12.848Z,9.43
2019-03-26T19:57:42.295Z,11.67
2019-03-26T20:00:14.702Z,10.40
2019-03-26T20:02:44.054Z,9.80
2019-03-26T20:05:13.736Z,8.53
2019-03-26T20:07:43.268Z,8.77
2019-03-26T20:10:13.467Z,8.77
2019-03-26T20:12:43.082Z,14.90
2019-03-26T20:15:12.919Z,9.97
2019-03-26T20:17:42.197Z,6.90
2019-03-26T20:20:12.471Z,13.90
2019-03-26T20:22:41.742Z,7.37
2019-03-26T20:25:11.474Z,10.80
2019-03-26T20:27:40.861Z,8.53
2019-03-26T20:30:10.767Z,7.67
2019-03-26T20:32:40.067Z,7.63
2019-03-26T20:35:10.170Z,10.27
2019-03-26T20:37:39.738Z,12.30
2019-03-26T20:40:12.351Z,10.03
2019-03-26T20:42:41.734Z,10.83
2019-03-26T20:45:14.248Z,10.80
2019-03-26T20:47:42.620Z,14.57
2019-03-26T20:50:12.438Z,13.03
2019-03-26T20:52:42.908Z,11.77
2019-03-26T20:55:13.186Z,11.03
2019-03-26T20:57:43.102Z,8.77
2019-03-26T21:00:13.519Z,17.13
2019-03-26T21:02:43.297Z,12.23
2019-03-26T21:05:12.742Z,10.53
2019-03-26T21:07:42.216Z,13.80
2019-03-26T21:10:11.571Z,15.83
2019-03-26T21:12:41.426Z,16.37
2019-03-26T21:15:10.851Z,12.93
2019-03-26T21:17:40.153Z,12.00
2019-03-26T21:20:09.963Z,15.57
2019-03-26T21:22:39.502Z,13.70
2019-03-26T21:25:09.219Z,13.63
2019-03-26T21:27:38.590Z,13.87
2019-03-26T21:30:15.324Z,16.17
2019-03-26T21:32:42.139Z,14.77
2019-03-26T21:35:11.767Z,13.20
2019-03-26T21:37:41.053Z,10.23
2019-03-26T21:40:11.741Z,10.00
2019-03-26T21:42:41.032Z,15.00
2019-03-26T21:45:12.213Z,14.60
2019-03-26T21:47:41.510Z,11.80
2019-03-26T21:50:11.019Z,12.90
2019-03-26T21:52:40.323Z,13.40
2019-03-26T21:55:13.182Z,12.07
2019-03-26T21:57:41.126Z,13.87
2019-03-26T22:00:11.041Z,10.90
2019-03-26T22:02:41.511Z,14.13
2019-03-26T22:05:11.512Z,13.67
2019-03-26T22:07:40.794Z,16.50
2019-03-26T22:10:11.340Z,13.33
2019-03-26T22:12:41.210Z,16.50
2019-03-26T22:15:11.333Z,18.07
2019-03-26T22:17:40.645Z,15.23
2019-03-26T22:20:10.178Z,12.40
2019-03-26T22:22:39.462Z,10.93
2019-03-26T22:25:09.078Z,12.07
2019-03-26T22:27:38.394Z,15.93
2019-03-26T22:30:10.007Z,13.50
2019-03-26T22:32:39.300Z,13.23
2019-03-26T22:35:09.718Z,13.10
2019-03-26T22:37:39.077Z,15.80
2019-03-26T22:40:08.791Z,13.47
2019-03-26T22:42:38.090Z,15.07
2019-03-26T22:45:08.703Z,12.43
2019-03-26T22:47:39.139Z,13.97
2019-03-26T22:50:09.256Z,12.43
2019-03-26T22:52:46.722Z,13.33
2019-03-26T22:55:15.993Z,11.70
2019-03-26T22:57:45.290Z,14.87
2019-03-26T23:00:19.430Z,16.83
2019-03-26T23:02:50.345Z,14.73
2019-03-26T23:05:19.687Z,21.70
2019-03-26T23:07:48.986Z,12.90
2019-03-26T23:10:19.978Z,13.23
2019-03-26T23:12:49.271Z,13.33
2019-03-26T23:15:24.243Z,12.83
2019-03-26T23:17:53.611Z,15.93
2019-03-26T23:20:24.060Z,17.97
2019-03-26T23:22:53.463Z,16.87
2019-03-26T23:25:22.735Z,17.97
2019-03-26T23:27:52.106Z,16.63
2019-03-26T23:30:22.394Z,14.73
2019-03-26T23:32:52.663Z,16.60
2019-03-26T23:35:22.019Z,18.60
2019-03-26T23:37:51.328Z,17.90
2019-03-26T23:40:20.610Z,17.90
2019-03-26T23:42:49.914Z,20.40
2019-03-26T23:45:19.258Z,17.27
2019-03-26T23:47:48.555Z,16.00
2019-03-26T23:50:17.830Z,20.77
2019-03-26T23:52:47.129Z,19.40
2019-03-26T23:55:16.427Z,23.53
2019-03-26T23:57:45.910Z,18.63
